createdAt,value
2023-03-11T00:02:40.489Z,13.4
2023-03-11T00:17:50.325Z,11.2
2023-03-11T00:33:00.111Z,8.2
2023-03-11T00:48:09.251Z,8.5
2023-03-11T01:03:18.995Z,6.3
2023-03-11T01:18:28.376Z,4.2
2023-03-11T01:33:37.624Z,3.6
2023-03-11T01:48:46.607Z,4.3
2023-03-11T02:03:55.957Z,4.8
2023-03-11T02:19:05.471Z,4.9
2023-03-11T02:34:14.704Z,5.6
2023-03-11T02:49:24.333Z,4.8
2023-03-11T03:04:33.205Z,4.6
2023-03-11T03:19:43.206Z,4.1
2023-03-11T03:34:52.064Z,4.8
2023-03-11T03:50:01.232Z,4.3
2023-03-11T04:05:11.004Z,3.8
2023-03-11T04:20:20.519Z,3.3
2023-03-11T04:35:30.091Z,3.5
2023-03-11T04:50:41.103Z,2.8
2023-03-11T05:05:51.005Z,2.6
2023-03-11T05:21:00.514Z,2.7
2023-03-11T05:36:10.702Z,3
2023-03-11T05:51:20.405Z,2.7
2023-03-11T06:06:29.956Z,2.6
2023-03-11T06:21:39.478Z,3.1
2023-03-11T06:36:49.024Z,2.4
2023-03-11T06:51:59.562Z,2.4
2023-03-11T07:07:08.723Z,2.5
2023-03-11T07:22:18.080Z,3.5
2023-03-11T07:37:27.674Z,2.9
2023-03-11T07:52:39.120Z,2.7
2023-03-11T08:07:48.585Z,4.2
2023-03-11T08:22:58.935Z,2.8
2023-03-11T08:38:08.561Z,2.8
2023-03-11T08:53:18.904Z,3.6
2023-03-11T09:08:28.583Z,2.5
2023-03-11T09:23:37.884Z,3
2023-03-11T09:38:47.775Z,3
2023-03-11T09:53:57.711Z,3.1
2023-03-11T10:09:08.159Z,2.9
2023-03-11T10:24:17.979Z,3.2
2023-03-11T10:39:27.201Z,3.2
2023-03-11T10:54:37.903Z,2.7
2023-03-11T11:09:48.195Z,2.9
2023-03-11T11:24:57.766Z,3
2023-03-11T11:40:11.150Z,2.3
2023-03-11T11:55:21.417Z,2.9
2023-03-11T12:10:30.997Z,2.4
2023-03-11T12:25:43.443Z,3.2
2023-03-11T12:40:52.934Z,2.4
2023-03-11T12:56:02.740Z,2.4
2023-03-11T13:11:13.096Z,2.2
2023-03-11T13:26:23.873Z,2.3
2023-03-11T13:41:33.882Z,2.5
2023-03-11T13:56:44.220Z,2.6
2023-03-11T14:11:53.654Z,1.9
2023-03-11T14:27:03.677Z,1.8
2023-03-11T14:42:13.423Z,1.7
2023-03-11T14:57:22.471Z,2
2023-03-11T15:12:31.932Z,1.9
2023-03-11T15:27:42.379Z,1.8
2023-03-11T15:42:52.061Z,2.5
2023-03-11T15:58:03.022Z,2.1
2023-03-11T16:13:11.570Z,2.1
2023-03-11T16:28:23.020Z,1.6
2023-03-11T16:43:31.016Z,2
2023-03-11T16:58:39.010Z,2.1
2023-03-11T17:13:47.407Z,2.6
2023-03-11T17:28:55.519Z,1.9
2023-03-11T17:44:04.404Z,2.2
2023-03-11T17:59:13.475Z,2.6
2023-03-11T18:14:23.075Z,1.9
2023-03-11T18:29:32.663Z,4.9
2023-03-11T18:44:42.082Z,4.5
2023-03-11T18:59:51.663Z,5
2023-03-11T19:15:01.174Z,4.8
2023-03-11T19:30:10.272Z,4
2023-03-11T19:45:18.870Z,4.7
2023-03-11T20:00:27.901Z,4.4
2023-03-11T20:15:38.076Z,3.5
2023-03-11T20:30:48.350Z,4.4
2023-03-11T20:45:58.175Z,3.7
2023-03-11T21:01:07.840Z,3.2
2023-03-11T21:16:17.933Z,3.5
2023-03-11T21:31:30.113Z,3.1
2023-03-11T21:46:41.111Z,3.6
2023-03-11T22:01:51.656Z,3.6
2023-03-11T22:17:01.824Z,4.2
2023-03-11T22:32:11.516Z,3.5
2023-03-11T22:47:19.929Z,4
2023-03-11T23:02:28.485Z,3.7
2023-03-11T23:17:42.517Z,4.2
2023-03-11T23:32:52.581Z,3.1
2023-03-11T23:48:02.910Z,3.8
